createdAt,value
2023-01-20T00:00:51.177Z,6.70
2023-01-20T00:03:32.895Z,8.80
2023-01-20T00:06:00.671Z,6.70
2023-01-20T00:08:28.595Z,8.80
2023-01-20T00:10:56.351Z,7.60
2023-01-20T00:13:24.080Z,8.10
2023-01-20T00:15:51.847Z,8.40
2023-01-20T00:18:19.705Z,9.80
2023-01-20T00:20:47.584Z,12.10
2023-01-20T00:23:15.400Z,9.20
2023-01-20T00:25:43.208Z,9.70
2023-01-20T00:28:10.931Z,11.00
2023-01-20T00:30:38.721Z,10.70
2023-01-20T00:33:06.561Z,9.20
2023-01-20T00:35:34.341Z,9.30
2023-01-20T00:38:02.163Z,8.30
2023-01-20T00:40:29.985Z,7.10
2023-01-20T00:42:57.703Z,7.50
2023-01-20T00:45:25.461Z,7.70
2023-01-20T00:47:53.284Z,8.00
2023-01-20T00:50:21.025Z,8.00
2023-01-20T00:52:48.791Z,6.80
2023-01-20T00:55:16.665Z,6.70
2023-01-20T00:57:44.384Z,5.80
2023-01-20T01:00:12.156Z,5.40
2023-01-20T01:02:40.490Z,7.40
2023-01-20T01:05:08.332Z,6.80
2023-01-20T01:07:36.117Z,6.20
2023-01-20T01:10:04.138Z,6.80
2023-01-20T01:12:31.918Z,6.00
2023-01-20T01:14:59.632Z,6.70
2023-01-20T01:17:27.406Z,4.80
2023-01-20T01:19:55.152Z,6.40
2023-01-20T01:22:22.909Z,5.10
2023-01-20T01:24:50.703Z,6.40
2023-01-20T01:27:18.541Z,6.60
2023-01-20T01:29:46.335Z,7.40
2023-01-20T01:32:14.198Z,7.10
2023-01-20T01:34:42.080Z,8.10
2023-01-20T01:37:09.912Z,5.50
2023-01-20T01:39:37.895Z,7.20
2023-01-20T01:42:05.691Z,8.00
2023-01-20T01:44:33.472Z,7.20
2023-01-20T01:47:01.427Z,6.30
2023-01-20T01:49:29.174Z,5.80
2023-01-20T01:51:56.917Z,6.80
2023-01-20T01:54:24.731Z,8.00
2023-01-20T01:56:52.471Z,6.30
2023-01-20T01:59:20.452Z,6.40
2023-01-20T02:01:48.360Z,5.60
2023-01-20T02:04:16.488Z,7.70
2023-01-20T02:06:44.397Z,8.00
2023-01-20T02:09:12.196Z,8.30
2023-01-20T02:11:40.172Z,9.80
2023-01-20T02:14:07.929Z,7.70
2023-01-20T02:16:35.741Z,8.60
2023-01-20T02:19:03.513Z,7.60
2023-01-20T02:21:31.240Z,8.00
2023-01-20T02:23:59.004Z,7.30
2023-01-20T02:26:26.763Z,8.10
2023-01-20T02:28:54.764Z,8.00
2023-01-20T02:31:22.550Z,9.00
2023-01-20T02:33:50.444Z,9.70
2023-01-20T02:36:18.166Z,9.90
2023-01-20T02:38:46.187Z,10.30
2023-01-20T02:41:13.972Z,10.30
2023-01-20T02:43:41.737Z,8.80
2023-01-20T02:46:09.627Z,8.30
2023-01-20T02:48:39.601Z,8.90
2023-01-20T02:51:08.042Z,7.90
2023-01-20T02:53:35.864Z,7.80
2023-01-20T02:56:03.613Z,8.70
2023-01-20T02:58:31.404Z,8.10
2023-01-20T03:00:59.323Z,8.40
2023-01-20T03:03:27.205Z,7.50
2023-01-20T03:05:55.245Z,8.10
2023-01-20T03:08:23.117Z,8.40
2023-01-20T03:10:50.908Z,7.60
2023-01-20T03:13:18.682Z,7.70
2023-01-20T03:15:46.472Z,9.00
2023-01-20T03:18:14.236Z,6.90
2023-01-20T03:20:41.954Z,6.90
2023-01-20T03:23:10.096Z,6.10
2023-01-20T03:25:39.157Z,6.50
2023-01-20T03:28:06.904Z,6.00
2023-01-20T03:30:34.763Z,7.40
2023-01-20T03:33:02.795Z,8.20
2023-01-20T03:35:30.513Z,7.50
2023-01-20T03:37:58.280Z,7.30
2023-01-20T03:40:26.408Z,7.50
2023-01-20T03:42:54.227Z,8.10
2023-01-20T03:45:23.944Z,6.50
2023-01-20T03:47:51.711Z,7.80
2023-01-20T03:50:19.423Z,7.60
2023-01-20T03:52:48.714Z,9.10
2023-01-20T03:55:16.930Z,8.40
2023-01-20T03:57:44.998Z,7.50
2023-01-20T04:00:12.785Z,8.80
2023-01-20T04:02:40.546Z,8.40
2023-01-20T04:05:08.295Z,8.50
2023-01-20T04:07:36.323Z,8.70
2023-01-20T04:10:04.081Z,8.30
2023-01-20T04:12:31.867Z,7.60
2023-01-20T04:14:59.689Z,8.50
2023-01-20T04:17:27.499Z,8.20
2023-01-20T04:19:55.325Z,7.80
2023-01-20T04:22:23.359Z,7.20
2023-01-20T04:24:51.107Z,7.30
2023-01-20T04:27:18.868Z,8.20
2023-01-20T04:29:46.641Z,8.60
2023-01-20T04:32:14.798Z,8.10
2023-01-20T04:34:42.608Z,8.10
2023-01-20T04:37:10.476Z,9.10
2023-01-20T04:39:38.252Z,8.80
2023-01-20T04:42:06.158Z,8.20
2023-01-20T04:44:34.083Z,6.90
2023-01-20T04:47:01.822Z,8.60
2023-01-20T04:49:29.703Z,8.10
2023-01-20T04:51:57.569Z,8.60
2023-01-20T04:54:25.298Z,6.60
2023-01-20T04:56:53.013Z,6.40
2023-01-20T04:59:21.056Z,6.50
2023-01-20T05:01:48.933Z,6.40
2023-01-20T05:04:16.883Z,6.50
2023-01-20T05:06:45.126Z,5.30
2023-01-20T05:09:13.040Z,5.90
2023-01-20T05:11:40.806Z,4.60
2023-01-20T05:14:08.609Z,6.40
2023-01-20T05:16:36.402Z,6.40
2023-01-20T05:19:04.130Z,5.40
2023-01-20T05:21:31.943Z,4.80
2023-01-20T05:23:59.840Z,4.50
2023-01-20T05:26:27.713Z,6.40
2023-01-20T05:28:55.706Z,6.10
2023-01-20T05:31:23.530Z,5.00
2023-01-20T05:33:51.356Z,7.40
2023-01-20T05:36:19.499Z,7.50
2023-01-20T05:38:47.282Z,6.20
2023-01-20T05:41:15.062Z,7.20
2023-01-20T05:43:43.009Z,8.30
2023-01-20T05:46:10.937Z,8.00
2023-01-20T05:48:38.741Z,6.90
2023-01-20T05:51:07.114Z,8.00
2023-01-20T05:53:35.290Z,7.70
2023-01-20T05:56:03.018Z,8.80
2023-01-20T05:58:30.795Z,9.10
2023-01-20T06:00:58.614Z,9.20
2023-01-20T06:03:26.542Z,8.40
2023-01-20T06:05:54.394Z,9.10
2023-01-20T06:08:22.206Z,9.30
2023-01-20T06:10:50.668Z,10.00
2023-01-20T06:13:18.510Z,10.50
2023-01-20T06:15:46.275Z,10.90
2023-01-20T06:18:14.162Z,11.40
2023-01-20T06:20:41.941Z,10.30
2023-01-20T06:23:09.647Z,7.70
2023-01-20T06:25:37.407Z,9.00
2023-01-20T06:28:05.226Z,8.50
2023-01-20T06:30:33.029Z,8.30
2023-01-20T06:33:00.823Z,8.40
2023-01-20T06:35:28.890Z,8.90
2023-01-20T06:37:56.664Z,9.30
2023-01-20T06:40:24.873Z,5.80
2023-01-20T06:42:52.652Z,6.30
2023-01-20T06:45:22.604Z,8.30
2023-01-20T06:47:50.427Z,6.30
2023-01-20T06:50:18.331Z,6.50
2023-01-20T06:52:46.075Z,6.40
2023-01-20T06:55:14.099Z,6.50
2023-01-20T06:57:42.126Z,6.80
2023-01-20T07:00:09.881Z,7.40
2023-01-20T07:02:37.701Z,8.40
2023-01-20T07:05:08.291Z,7.20
2023-01-20T07:07:36.041Z,8.10
2023-01-20T07:10:03.816Z,7.70
2023-01-20T07:12:31.919Z,8.30
2023-01-20T07:14:59.680Z,8.90
2023-01-20T07:17:27.451Z,8.50
2023-01-20T07:19:55.320Z,8.30
2023-01-20T07:22:23.116Z,7.90
2023-01-20T07:24:51.218Z,8.30
2023-01-20T07:27:19.012Z,8.60
2023-01-20T07:29:46.770Z,11.40
2023-01-20T07:32:15.385Z,12.90
2023-01-20T07:34:43.239Z,12.90
2023-01-20T07:37:10.993Z,12.60
2023-01-20T07:39:38.861Z,13.50
2023-01-20T07:42:06.844Z,14.30
2023-01-20T07:44:34.698Z,12.20
2023-01-20T07:47:02.459Z,12.90
2023-01-20T07:49:30.637Z,12.80
2023-01-20T07:51:58.519Z,8.20
2023-01-20T07:54:26.285Z,9.80
2023-01-20T07:56:54.282Z,13.50
2023-01-20T07:59:22.057Z,14.90
2023-01-20T08:01:49.967Z,17.60
2023-01-20T08:04:18.295Z,17.00
2023-01-20T08:06:46.045Z,15.20
2023-01-20T08:09:14.952Z,16.30
2023-01-20T08:11:42.714Z,13.70
2023-01-20T08:14:10.551Z,15.40
2023-01-20T08:16:38.462Z,16.50
2023-01-20T08:19:06.301Z,12.80
2023-01-20T08:21:34.033Z,14.80
2023-01-20T08:24:01.853Z,12.10
2023-01-20T08:26:29.994Z,8.20
2023-01-20T08:28:57.770Z,9.50
2023-01-20T08:31:25.694Z,8.80
2023-01-20T08:33:53.968Z,10.00
2023-01-20T08:36:21.748Z,11.80
2023-01-20T08:38:49.608Z,8.50
2023-01-20T08:41:17.444Z,10.70
2023-01-20T08:43:45.252Z,9.20
2023-01-20T08:46:13.100Z,10.50
2023-01-20T08:48:41.060Z,6.30
2023-01-20T08:51:09.697Z,8.90
2023-01-20T08:53:37.526Z,9.10
2023-01-20T08:56:05.360Z,7.50
2023-01-20T08:58:33.286Z,5.10
2023-01-20T09:01:01.270Z,4.30
2023-01-20T09:03:29.145Z,4.70
2023-01-20T09:05:59.382Z,6.10
2023-01-20T09:08:27.267Z,5.20
2023-01-20T09:10:56.518Z,6.40
2023-01-20T09:13:24.254Z,7.20
2023-01-20T09:15:52.133Z,6.80
2023-01-20T09:18:19.968Z,7.50
2023-01-20T09:20:47.687Z,6.10
2023-01-20T09:23:15.431Z,7.70
2023-01-20T09:25:43.331Z,7.70
2023-01-20T09:28:12.209Z,7.30
2023-01-20T09:30:40.454Z,7.70
2023-01-20T09:33:08.523Z,5.90
2023-01-20T09:35:36.343Z,7.50
2023-01-20T09:38:22.746Z,3.60
2023-01-20T09:41:09.642Z,4.70
2023-01-20T09:43:55.764Z,5.80
2023-01-20T09:46:23.570Z,6.30
2023-01-20T09:49:10.501Z,5.20
2023-01-20T09:51:57.243Z,6.00
2023-01-20T09:54:25.059Z,5.40
2023-01-20T09:56:52.851Z,4.60
2023-01-20T09:59:20.932Z,5.10
2023-01-20T10:01:48.786Z,5.20
2023-01-20T10:04:16.559Z,5.50
2023-01-20T10:06:44.293Z,5.50
2023-01-20T10:09:12.068Z,6.30
2023-01-20T10:11:39.909Z,6.20
2023-01-20T10:14:07.790Z,7.30
2023-01-20T10:16:36.005Z,7.40
2023-01-20T10:19:03.802Z,6.60
2023-01-20T10:21:31.551Z,6.80
2023-01-20T10:23:59.411Z,4.10
2023-01-20T10:26:27.202Z,5.90
2023-01-20T10:28:54.973Z,5.60
2023-01-20T10:31:22.951Z,6.30
2023-01-20T10:33:53.413Z,4.10
2023-01-20T10:36:21.188Z,6.20
2023-01-20T10:38:49.022Z,4.40
2023-01-20T10:41:19.592Z,5.40
2023-01-20T10:43:47.753Z,6.00
2023-01-20T10:46:15.603Z,6.80
2023-01-20T10:48:43.554Z,6.60
2023-01-20T10:51:11.323Z,7.20
2023-01-20T10:53:39.069Z,6.60
2023-01-20T10:56:06.859Z,7.10
2023-01-20T10:58:34.675Z,7.90
2023-01-20T11:01:03.118Z,8.20
2023-01-20T11:03:30.847Z,5.20
2023-01-20T11:05:58.588Z,6.00
2023-01-20T11:08:26.395Z,7.90
2023-01-20T11:10:54.314Z,9.30
2023-01-20T11:13:22.116Z,7.90
2023-01-20T11:15:49.981Z,6.50
2023-01-20T11:18:17.874Z,5.80
2023-01-20T11:20:45.610Z,5.60
2023-01-20T11:23:13.678Z,6.20
2023-01-20T11:25:41.397Z,5.30
2023-01-20T11:28:09.108Z,5.40
2023-01-20T11:30:37.144Z,4.60
2023-01-20T11:33:04.934Z,5.70
2023-01-20T11:35:32.968Z,4.90
2023-01-20T11:38:00.893Z,6.20
2023-01-20T11:40:28.716Z,6.70
2023-01-20T11:42:56.443Z,7.70
2023-01-20T11:45:24.220Z,6.40
2023-01-20T11:47:52.044Z,6.50
2023-01-20T11:50:19.861Z,8.10
2023-01-20T11:52:47.599Z,7.70
2023-01-20T11:55:15.316Z,8.80
2023-01-20T11:57:43.105Z,8.00
2023-01-20T12:00:10.874Z,6.50
2023-01-20T12:02:38.657Z,7.10
2023-01-20T12:05:06.610Z,6.30
2023-01-20T12:07:34.425Z,7.50
2023-01-20T12:10:04.662Z,6.10
2023-01-20T12:12:33.922Z,8.30
2023-01-20T12:15:02.043Z,7.80
2023-01-20T12:17:29.788Z,7.70
2023-01-20T12:19:57.771Z,9.10
2023-01-20T12:22:25.583Z,7.60
2023-01-20T12:25:08.881Z,10.30
2023-01-20T12:27:36.754Z,8.40
2023-01-20T12:30:04.469Z,7.30
2023-01-20T12:32:33.410Z,8.70
2023-01-20T12:35:01.358Z,7.40
2023-01-20T12:37:29.091Z,7.50
2023-01-20T12:39:56.875Z,7.70
2023-01-20T12:42:25.013Z,6.60
2023-01-20T12:44:52.820Z,6.80
2023-01-20T12:47:20.575Z,6.10
2023-01-20T12:49:48.391Z,5.70
2023-01-20T12:52:16.250Z,7.50
2023-01-20T12:54:48.649Z,5.30
2023-01-20T12:57:16.759Z,6.10
2023-01-20T12:59:44.592Z,5.60
2023-01-20T13:02:12.369Z,5.40
2023-01-20T13:04:40.157Z,6.80
2023-01-20T13:07:07.912Z,6.30
2023-01-20T13:09:35.667Z,6.40
2023-01-20T13:12:03.537Z,5.10
2023-01-20T13:14:31.285Z,6.20
2023-01-20T13:16:59.098Z,6.70
2023-01-20T13:19:26.940Z,4.80
2023-01-20T13:22:07.412Z,6.20
2023-01-20T13:24:35.974Z,6.90
2023-01-20T13:27:03.711Z,5.40
2023-01-20T13:29:31.455Z,6.10
2023-01-20T13:32:00.697Z,4.70
2023-01-20T13:34:28.675Z,4.60
2023-01-20T13:36:56.451Z,5.00
2023-01-20T13:39:25.567Z,5.70
2023-01-20T13:41:53.591Z,5.50
2023-01-20T13:44:21.344Z,6.50
2023-01-20T13:46:49.229Z,14.90
2023-01-20T13:49:16.973Z,17.50
2023-01-20T13:51:45.155Z,14.20
2023-01-20T13:54:13.161Z,12.20
2023-01-20T13:56:40.932Z,14.10
2023-01-20T13:59:08.679Z,13.90
2023-01-20T14:01:37.369Z,11.00
2023-01-20T14:04:05.227Z,14.20
2023-01-20T14:06:34.299Z,12.50
2023-01-20T14:09:02.385Z,14.00
2023-01-20T14:11:31.376Z,12.30
2023-01-20T14:13:59.306Z,14.20
2023-01-20T14:16:27.264Z,14.20
2023-01-20T14:18:55.096Z,9.60
2023-01-20T14:21:22.949Z,12.90
2023-01-20T14:23:51.157Z,10.00
2023-01-20T14:26:18.894Z,5.40
2023-01-20T14:28:46.749Z,6.30
2023-01-20T14:31:14.645Z,3.60
2023-01-20T14:33:42.493Z,4.00
2023-01-20T14:36:10.233Z,2.50
2023-01-20T14:38:48.348Z,3.10
2023-01-20T14:41:24.140Z,2.50
2023-01-20T14:43:51.942Z,3.50
2023-01-20T14:46:19.808Z,4.30
2023-01-20T14:48:47.691Z,3.20
2023-01-20T14:51:15.837Z,4.90
2023-01-20T14:53:43.634Z,4.40
2023-01-20T14:56:11.428Z,5.70
2023-01-20T14:58:39.196Z,8.50
2023-01-20T15:01:06.946Z,9.40
2023-01-20T15:03:34.880Z,9.40
2023-01-20T15:06:02.802Z,10.70
2023-01-20T15:08:30.992Z,11.50
2023-01-20T15:10:58.769Z,10.70
2023-01-20T15:13:26.611Z,8.90
2023-01-20T15:15:54.410Z,10.10
2023-01-20T15:18:22.467Z,8.60
2023-01-20T15:20:50.308Z,6.60
2023-01-20T15:23:18.061Z,9.60
2023-01-20T15:25:45.963Z,9.10
2023-01-20T15:28:13.825Z,9.90
2023-01-20T15:30:41.626Z,12.50
2023-01-20T15:33:09.368Z,8.80
2023-01-20T15:35:37.625Z,9.30
2023-01-20T15:38:05.391Z,8.90
2023-01-20T15:40:33.208Z,11.20
2023-01-20T15:43:00.989Z,12.00
2023-01-20T15:45:28.837Z,16.90
2023-01-20T15:47:57.905Z,13.90
2023-01-20T15:50:26.799Z,15.40
2023-01-20T15:52:54.600Z,14.00
2023-01-20T15:55:22.347Z,13.40
2023-01-20T15:57:50.581Z,11.50
2023-01-20T16:00:18.667Z,10.00
2023-01-20T16:02:46.676Z,12.10
2023-01-20T16:05:17.300Z,13.20
2023-01-20T16:07:47.687Z,13.70
2023-01-20T16:10:16.383Z,16.30
2023-01-20T16:12:44.443Z,16.80
2023-01-20T16:15:12.154Z,22.70
2023-01-20T16:17:40.058Z,24.80
2023-01-20T16:20:07.817Z,19.80
2023-01-20T16:22:35.639Z,21.60
2023-01-20T16:25:03.420Z,26.50
2023-01-20T16:27:31.266Z,27.80
2023-01-20T16:29:59.080Z,28.30
2023-01-20T16:32:27.277Z,17.40
2023-01-20T16:34:55.054Z,26.20
2023-01-20T16:37:22.959Z,23.30
2023-01-20T16:39:51.005Z,25.30
2023-01-20T16:42:18.798Z,24.60
2023-01-20T16:44:46.553Z,14.30
2023-01-20T16:47:14.357Z,22.00
2023-01-20T16:49:42.444Z,16.40
2023-01-20T16:52:10.228Z,14.70
2023-01-20T16:54:37.983Z,17.20
2023-01-20T16:57:05.749Z,11.30
2023-01-20T16:59:33.544Z,11.80
2023-01-20T17:02:01.492Z,10.30
2023-01-20T17:04:29.851Z,14.90
2023-01-20T17:06:57.722Z,17.40
2023-01-20T17:09:25.507Z,13.50
2023-01-20T17:11:53.316Z,15.90
2023-01-20T17:14:21.117Z,19.30
2023-01-20T17:16:49.004Z,19.80
2023-01-20T17:19:17.851Z,17.00
2023-01-20T17:21:45.902Z,17.30
2023-01-20T17:24:13.807Z,19.70
2023-01-20T17:26:41.647Z,18.90
2023-01-20T17:29:09.689Z,19.80
2023-01-20T17:31:37.777Z,17.40
2023-01-20T17:34:05.779Z,14.60
2023-01-20T17:36:36.793Z,13.80
2023-01-20T17:39:04.724Z,11.60
2023-01-20T17:41:33.082Z,10.70
2023-01-20T17:44:00.819Z,11.50
2023-01-20T17:46:28.636Z,12.90
2023-01-20T17:48:56.401Z,12.60
2023-01-20T17:51:24.181Z,13.80
2023-01-20T17:53:52.089Z,32.60
2023-01-20T17:56:19.849Z,12.80
2023-01-20T17:58:47.631Z,7.90
2023-01-20T18:01:15.447Z,5.70
2023-01-20T18:03:43.446Z,5.40
2023-01-20T18:06:11.331Z,4.40
2023-01-20T18:08:39.155Z,3.70
2023-01-20T18:11:06.937Z,3.90
2023-01-20T18:13:35.414Z,4.10
2023-01-20T18:16:04.381Z,4.20
2023-01-20T18:18:32.246Z,3.20
2023-01-20T18:21:00.001Z,2.90
2023-01-20T18:23:27.865Z,4.00
2023-01-20T18:25:56.596Z,3.50
2023-01-20T18:28:24.373Z,3.80
2023-01-20T18:30:53.656Z,3.40
2023-01-20T18:33:21.590Z,5.20
2023-01-20T18:35:49.716Z,6.20
2023-01-20T18:38:17.497Z,7.40
2023-01-20T18:40:45.227Z,5.80
2023-01-20T18:43:13.163Z,5.30
2023-01-20T18:45:41.105Z,5.60
2023-01-20T18:48:10.137Z,4.90
2023-01-20T18:50:38.273Z,5.60
2023-01-20T18:53:06.118Z,6.80
2023-01-20T18:55:34.064Z,7.60
2023-01-20T18:58:02.181Z,5.60
2023-01-20T19:00:30.545Z,4.60
2023-01-20T19:02:58.648Z,4.80
2023-01-20T19:05:26.462Z,5.20
2023-01-20T19:07:54.456Z,5.70
2023-01-20T19:10:22.824Z,5.80
2023-01-20T19:12:50.639Z,5.20
2023-01-20T19:15:18.920Z,8.80
2023-01-20T19:17:46.810Z,10.60
2023-01-20T19:20:14.847Z,9.00
2023-01-20T19:22:42.759Z,10.40
2023-01-20T19:25:10.545Z,17.80
2023-01-20T19:27:38.291Z,21.20
2023-01-20T19:30:06.402Z,26.10
2023-01-20T19:32:34.497Z,28.50
2023-01-20T19:35:02.475Z,28.60
2023-01-20T19:37:30.516Z,35.00
2023-01-20T19:39:58.766Z,20.50
2023-01-20T19:42:26.557Z,15.70
2023-01-20T19:44:54.403Z,9.90
2023-01-20T19:47:22.238Z,8.50
2023-01-20T19:49:50.011Z,7.00
2023-01-20T19:52:18.129Z,7.50
2023-01-20T19:54:46.158Z,12.30
2023-01-20T19:57:16.842Z,9.00
2023-01-20T19:59:45.069Z,8.40
2023-01-20T20:02:13.082Z,10.50
2023-01-20T20:04:41.843Z,11.60
2023-01-20T20:07:09.861Z,11.60
2023-01-20T20:09:38.092Z,9.50
2023-01-20T20:12:07.718Z,8.20
2023-01-20T20:14:35.498Z,7.60
2023-01-20T20:17:03.724Z,6.40
2023-01-20T20:19:31.504Z,9.10
2023-01-20T20:21:59.621Z,8.20
2023-01-20T20:24:27.542Z,7.70
2023-01-20T20:26:55.640Z,9.40
2023-01-20T20:29:24.556Z,7.90
2023-01-20T20:31:52.633Z,7.10
2023-01-20T20:34:20.739Z,6.60
2023-01-20T20:36:48.862Z,6.50
2023-01-20T20:39:16.929Z,6.10
2023-01-20T20:41:45.103Z,8.40
2023-01-20T20:44:13.212Z,11.00
2023-01-20T20:46:41.457Z,9.80
2023-01-20T20:49:10.215Z,11.00
2023-01-20T20:51:38.533Z,12.30
2023-01-20T20:54:06.491Z,12.80
2023-01-20T20:56:34.607Z,10.40
2023-01-20T20:59:03.725Z,9.20
2023-01-20T21:01:33.086Z,8.30
2023-01-20T21:04:01.215Z,11.50
2023-01-20T21:06:29.127Z,8.60
2023-01-20T21:08:57.090Z,9.60
2023-01-20T21:11:25.159Z,9.80
2023-01-20T21:13:53.055Z,8.90
2023-01-20T21:16:23.134Z,9.90
2023-01-20T21:18:51.936Z,12.30
2023-01-20T21:21:20.073Z,8.80
2023-01-20T21:23:47.957Z,11.30
2023-01-20T21:26:15.744Z,13.70
2023-01-20T21:28:44.594Z,10.90
2023-01-20T21:31:12.395Z,13.80
2023-01-20T21:33:40.470Z,15.30
2023-01-20T21:36:09.259Z,15.10
2023-01-20T21:38:37.598Z,13.40
2023-01-20T21:41:05.683Z,10.10
2023-01-20T21:43:52.451Z,10.10
2023-01-20T21:46:20.218Z,12.10
2023-01-20T21:49:07.055Z,9.00
2023-01-20T21:51:53.814Z,11.30
2023-01-20T21:54:21.831Z,10.90
2023-01-20T21:56:49.749Z,10.10
2023-01-20T21:59:17.561Z,10.50
2023-01-20T22:01:45.534Z,13.10
2023-01-20T22:04:13.304Z,10.40
2023-01-20T22:06:41.046Z,7.90
2023-01-20T22:09:08.958Z,9.90
2023-01-20T22:11:36.685Z,12.40
2023-01-20T22:14:04.494Z,11.20
2023-01-20T22:16:32.572Z,9.30
2023-01-20T22:19:00.377Z,10.60
2023-01-20T22:21:28.215Z,11.00
2023-01-20T22:23:56.009Z,10.00
2023-01-20T22:26:23.782Z,9.80
2023-01-20T22:28:51.559Z,9.60
2023-01-20T22:31:23.630Z,10.10
2023-01-20T22:33:51.909Z,8.30
2023-01-20T22:36:20.032Z,6.70
2023-01-20T22:38:47.845Z,6.70
2023-01-20T22:41:15.736Z,7.10
2023-01-20T22:43:44.357Z,6.80
2023-01-20T22:46:13.061Z,5.60
2023-01-20T22:48:40.879Z,4.90
2023-01-20T22:51:08.741Z,5.80
2023-01-20T22:53:36.578Z,4.40
2023-01-20T22:56:04.502Z,4.00
2023-01-20T22:58:32.343Z,4.00
2023-01-20T23:01:00.236Z,2.70
2023-01-20T23:03:28.025Z,4.90
2023-01-20T23:05:56.980Z,3.90
2023-01-20T23:08:24.859Z,3.50
2023-01-20T23:10:52.599Z,4.10
2023-01-20T23:13:20.388Z,5.40
2023-01-20T23:15:48.226Z,3.80
2023-01-20T23:18:16.020Z,4.90
2023-01-20T23:20:43.903Z,4.70
2023-01-20T23:23:11.856Z,9.10
2023-01-20T23:25:39.736Z,8.90
2023-01-20T23:28:07.588Z,4.20
2023-01-20T23:30:35.716Z,3.50
2023-01-20T23:33:03.563Z,2.40
2023-01-20T23:35:31.382Z,2.40
2023-01-20T23:37:59.494Z,2.20
2023-01-20T23:40:27.617Z,2.70
2023-01-20T23:42:55.594Z,2.70
2023-01-20T23:45:23.416Z,3.30
2023-01-20T23:47:51.402Z,3.00
2023-01-20T23:50:19.327Z,2.60
2023-01-20T23:52:47.128Z,3.90
2023-01-20T23:55:14.924Z,3.40
2023-01-20T23:57:42.647Z,3.40
